Airport View

Enter AWOS ICAO identifier for current METAR.

ex. KFNL

KMAF 191853Z 26008KT 10SM CLR 37/10 A2987 RMK AO2 SLP060 T03720100

19 Jun 2019 19:49

Phone: 432-561-5935

Other Area AWOS: KMDD - KODO - KE11 - KBPG

TAF AMD KMAF 191901Z 1919/2018 26012G17KT P6SM SCT045 FM200200 21007KT P6SM SKC FM201200 22008KT P6SM SKC FM201600 22011G21KT P6SM SKC